.
WxDataArchive / Data Records for 2014-09-02
2014-09-01 September 2014 2014-09-03

Data Records for Tuesday, 02 September 2014

Time	Temp	Chill	HIndex	Humid	Dewpt	 Wind 	HiWind	WindDir	Rain 	Barom
-----	----	-----	------	-----	-----	------	------	-------	-----	-----
00:00	73.9	73.9	73.9	76	65.8	0	1	270	0.00	29.845 
00:05	73.7	73.7	73.7	76	65.6	0	2	270	0.00	29.845 
00:10	73.5	73.5	73.5	77	65.8	0	2	270	0.00	29.845 
00:15	73.5	73.5	73.5	77	65.8	0	1	270	0.00	29.845 
00:20	73.3	73.3	73.3	78	66.0	0	0	---	0.00	29.845 
00:25	73.0	73.0	73.0	79	66.1	0	2	270	0.00	29.845 
00:30	73.0	73.0	73.0	79	66.1	0	1	270	0.00	29.845 
00:35	72.8	72.8	72.8	79	65.9	0	3	270	0.00	29.845 
00:40	72.7	72.7	72.7	79	65.8	0	1	270	0.00	29.845 
00:45	72.5	72.5	72.5	79	65.6	0	1	270	0.00	29.850 
00:50	72.3	72.3	72.3	80	65.8	0	2	270	0.00	29.850 
00:55	72.3	72.3	72.3	80	65.8	0	1	270	0.00	29.850 
01:00	72.1	72.1	72.1	80	65.6	0	1	270	0.00	29.852 
01:05	72.1	72.1	72.1	80	65.6	0	0	---	0.00	29.852 
01:10	72.0	72.0	72.0	80	65.5	0	0	---	0.00	29.852 
01:15	71.8	71.8	71.8	80	65.3	0	1	270	0.00	29.849 
01:20	71.8	71.8	71.8	80	65.3	0	1	270	0.00	29.849 
01:25	71.8	71.8	71.8	80	65.3	0	1	270	0.00	29.849 
01:30	71.6	71.6	71.6	80	65.1	0	1	270	0.00	29.849 
01:35	71.6	71.6	71.6	80	65.1	0	1	270	0.00	29.849 
01:40	71.6	71.6	71.6	80	65.1	0	1	270	0.00	29.849 
01:45	71.5	71.5	71.5	80	65.0	0	1	270	0.00	29.846 
01:50	71.5	71.5	71.5	80	65.0	0	2	270	0.00	29.846 
01:55	71.3	71.3	71.3	80	64.8	0	2	270	0.00	29.846 
02:00	71.3	71.3	71.3	80	64.8	0	1	270	0.00	29.837 
02:05	71.1	71.1	71.1	80	64.6	0	1	270	0.00	29.837 
02:10	71.1	71.1	71.1	80	64.6	0	1	270	0.00	29.837 
02:15	71.1	71.1	71.1	80	64.6	0	0	---	0.00	29.833 
02:20	70.9	70.9	70.9	81	64.8	0	0	---	0.00	29.833 
02:25	70.8	70.8	70.8	81	64.7	0	0	---	0.00	29.833 
02:30	70.8	70.8	70.8	81	64.7	0	0	---	0.00	29.849 
02:35	70.6	70.6	70.6	82	64.8	0	0	---	0.00	29.849 
02:40	70.6	70.6	70.6	82	64.8	0	1	270	0.00	29.849 
02:45	70.4	70.4	70.4	82	64.6	0	0	---	0.00	29.860 
02:50	70.4	70.4	70.4	82	64.6	0	1	270	0.00	29.860 
02:55	70.4	70.4	70.4	83	65.0	0	1	270	0.00	29.860 
03:00	70.6	70.6	70.6	83	65.2	0	1	270	0.00	29.857 
03:05	70.6	70.6	70.6	83	65.2	0	0	---	0.00	29.857 
03:10	70.6	70.6	70.6	83	65.2	0	1	270	0.00	29.857 
03:15	70.6	70.6	70.6	83	65.2	0	1	270	0.00	29.857 
03:20	70.6	70.6	70.6	83	65.2	0	2	270	0.00	29.857 
03:25	70.8	70.8	70.8	83	65.4	0	2	270	0.00	29.857 
03:30	70.8	70.8	70.8	82	65.0	1	4	270	0.00	29.847 
03:35	70.9	70.9	70.9	82	65.1	0	4	270	0.00	29.847 
03:40	70.9	70.9	70.9	82	65.1	0	1	270	0.00	29.847 
03:45	70.9	70.9	70.9	82	65.1	0	3	270	0.00	29.847 
03:50	71.1	71.1	71.1	82	65.3	0	2	270	0.00	29.847 
03:55	71.1	71.1	71.1	82	65.3	0	2	270	0.00	29.847 
04:00	71.1	71.1	71.1	82	65.3	0	2	270	0.00	29.848 
04:05	71.3	71.3	71.3	82	65.5	0	2	270	0.00	29.848 
04:10	71.3	71.3	71.3	83	65.9	0	2	270	0.00	29.848 
04:15	71.1	71.1	71.1	83	65.7	0	3	270	0.00	29.834 
04:20	71.1	71.1	71.1	84	66.0	0	2	270	0.00	29.834 
04:25	71.1	71.1	71.1	84	66.0	0	2	270	0.00	29.834 
04:30	70.9	70.9	70.9	84	65.8	0	1	270	0.00	29.855 
04:35	70.8	70.8	70.8	85	66.1	0	2	270	0.00	29.855 
04:40	70.6	70.6	70.6	86	66.2	0	2	270	0.01	29.855 
04:45	70.4	70.4	70.4	87	66.3	0	1	270	0.00	29.854 
04:50	70.4	70.4	70.4	87	66.3	0	1	270	0.00	29.854 
04:55	70.3	70.3	70.3	88	66.6	0	2	270	0.01	29.854 
05:00	70.3	70.3	70.3	88	66.6	0	2	270	0.00	29.866 
05:05	70.1	70.1	70.1	89	66.7	0	1	270	0.01	29.866 
05:10	69.9	69.9	69.9	90	66.8	0	3	270	0.01	29.866 
05:15	69.9	69.9	69.9	91	67.1	0	3	270	0.02	29.865 
05:20	69.8	69.8	69.8	91	67.0	0	2	270	0.01	29.865 
05:25	69.6	69.6	69.6	91	66.8	1	3	270	0.01	29.865 
05:30	69.4	69.4	69.4	92	67.0	1	3	270	0.01	29.866 
05:35	69.1	69.1	69.1	92	66.7	0	2	270	0.01	29.866 
05:40	68.8	68.8	68.8	92	66.4	0	2	270	0.00	29.866 
05:45	68.4	68.4	68.4	92	66.0	0	3	270	0.01	29.870 
05:50	68.1	68.1	68.1	92	65.7	0	3	270	0.00	29.870 
05:55	67.8	67.8	67.8	92	65.4	0	2	270	0.01	29.870 
06:00	67.4	67.4	67.4	92	65.0	0	1	270	0.00	29.874 
06:05	67.3	67.3	67.3	92	64.9	0	1	270	0.01	29.874 
06:10	67.1	67.1	67.1	92	64.7	1	3	270	0.00	29.874 
06:15	66.9	66.9	66.9	92	64.5	0	2	270	0.00	29.871 
06:20	66.8	66.8	66.8	92	64.4	0	2	270	0.00	29.871 
06:25	66.8	66.8	66.8	93	64.7	0	3	270	0.00	29.871 
06:30	66.6	66.6	66.6	93	64.5	0	1	270	0.00	29.861 
06:35	66.6	66.6	66.6	93	64.5	0	1	270	0.00	29.861 
06:40	66.6	66.6	66.6	93	64.5	0	0	---	0.00	29.861 
06:45	66.6	66.6	66.6	93	64.5	0	0	---	0.00	29.861 
06:50	66.6	66.6	66.6	93	64.5	0	0	---	0.00	29.861 
06:55	66.6	66.6	66.6	93	64.5	0	1	270	0.00	29.861 
07:00	66.6	66.6	66.6	93	64.5	0	0	---	0.00	29.856 
07:05	66.6	66.6	66.6	93	64.5	0	0	---	0.00	29.856 
07:10	66.6	66.6	66.6	94	64.8	0	0	---	0.00	29.856 
07:15	66.6	66.6	66.6	94	64.8	0	0	---	0.00	29.849 
07:20	66.6	66.6	66.6	94	64.8	0	0	---	0.00	29.849 
07:25	66.6	66.6	66.6	94	64.8	0	0	---	0.00	29.849 
07:30	66.6	66.6	66.6	94	64.8	0	0	---	0.00	29.849 
07:35	66.4	66.4	66.4	94	64.6	0	0	---	0.00	29.849 
07:40	66.6	66.6	66.6	94	64.8	0	1	270	0.00	29.849 
07:45	66.6	66.6	66.6	94	64.8	0	1	270	0.00	29.855 
07:50	66.6	66.6	66.6	94	64.8	0	0	---	0.00	29.855 
07:55	66.8	66.8	66.8	94	65.0	0	0	---	0.00	29.855 
08:00	66.8	66.8	66.8	94	65.0	0	0	---	0.00	29.859 
08:05	66.8	66.8	66.8	94	65.0	0	0	---	0.00	29.859 
08:10	66.9	66.9	66.9	94	65.1	0	1	270	0.00	29.859 
08:15	66.9	66.9	66.9	94	65.1	0	0	---	0.00	29.862 
08:20	67.1	67.1	67.1	94	65.3	0	0	---	0.00	29.862 
08:25	67.3	67.3	67.3	95	65.8	0	0	---	0.00	29.862 
08:30	67.3	67.3	67.3	95	65.8	0	1	270	0.00	29.855 
08:35	67.4	67.4	67.4	95	65.9	0	0	---	0.00	29.855 
08:40	67.6	67.6	67.6	94	65.8	0	1	270	0.00	29.855 
08:45	67.6	67.6	67.6	95	66.1	0	1	270	0.00	29.847 
08:50	67.6	67.6	67.6	95	66.1	0	1	270	0.00	29.847 
08:55	67.8	67.8	67.8	95	66.3	0	1	270	0.00	29.847 
09:00	67.9	67.9	67.9	95	66.4	0	1	270	0.00	29.849 
09:05	67.9	67.9	67.9	94	66.1	0	1	270	0.00	29.849 
09:10	67.8	67.8	67.8	94	66.0	0	0	---	0.00	29.849 
09:15	67.9	67.9	67.9	94	66.1	0	2	270	0.00	29.852 
09:20	67.8	67.8	67.8	94	66.0	0	1	270	0.00	29.852 
09:25	67.9	67.9	67.9	94	66.1	0	1	270	0.00	29.852 
09:30	68.1	68.1	68.1	94	66.3	0	1	270	0.00	29.842 
09:35	68.4	68.4	68.4	94	66.6	0	1	270	0.00	29.842 
09:40	68.4	68.4	68.4	94	66.6	0	3	270	0.00	29.842 
09:45	68.4	68.4	68.4	93	66.3	1	3	270	0.00	29.844 
09:50	68.8	68.8	68.8	93	66.7	0	2	270	0.00	29.844 
09:55	69.1	69.1	69.1	92	66.7	1	2	270	0.00	29.844 
10:00	69.3	69.3	69.3	92	66.9	1	4	270	0.00	29.862 
10:05	69.1	69.1	69.1	91	66.4	0	3	270	0.00	29.862 
10:10	69.1	69.1	69.1	90	66.0	0	4	270	0.00	29.862 
10:15	68.9	68.9	68.9	90	65.8	0	2	270	0.00	29.868 
10:20	68.9	68.9	68.9	89	65.5	0	2	270	0.00	29.868 
10:25	68.8	68.8	68.8	89	65.4	0	2	270	0.00	29.868 
10:30	68.8	68.8	68.8	89	65.4	0	1	270	0.00	29.872 
10:35	68.8	68.8	68.8	89	65.4	0	2	270	0.00	29.872 
10:40	68.8	68.8	68.8	89	65.4	0	1	270	0.00	29.872 
10:45	68.8	68.8	68.8	90	65.7	0	1	270	0.01	29.875 
10:50	68.6	68.6	68.6	90	65.5	0	2	270	0.01	29.875 
10:55	68.6	68.6	68.6	91	65.9	0	1	270	0.00	29.875 
11:00	68.6	68.6	68.6	91	65.9	0	2	270	0.00	29.883 
11:05	68.6	68.6	68.6	92	66.2	0	1	270	0.00	29.883 
11:10	68.6	68.6	68.6	92	66.2	0	2	270	0.00	29.883 
11:15	68.4	68.4	68.4	92	66.0	0	2	270	0.00	29.890 
11:20	68.3	68.3	68.3	92	65.9	0	1	270	0.00	29.890 
11:25	68.3	68.3	68.3	92	65.9	0	3	270	0.00	29.890 
11:30	68.1	68.1	68.1	92	65.7	0	3	270	0.00	29.892 
11:35	68.1	68.1	68.1	92	65.7	0	2	270	0.00	29.892 
11:40	68.1	68.1	68.1	92	65.7	0	4	270	0.00	29.892 
11:45	68.3	68.3	68.3	92	65.9	0	2	270	0.00	29.893 
11:50	68.3	68.3	68.3	92	65.9	0	2	270	0.00	29.893 
11:55	68.4	68.4	68.4	93	66.3	0	3	270	0.00	29.893 
12:00	68.6	68.6	68.6	93	66.5	0	3	270	0.00	29.889 
12:05	68.6	68.6	68.6	93	66.5	1	4	270	0.00	29.889 
12:10	68.8	68.8	68.8	93	66.7	1	3	270	0.00	29.889 
12:15	68.9	68.9	68.9	93	66.8	1	2	270	0.00	29.890 
12:20	69.1	69.1	69.1	93	67.0	1	2	270	0.00	29.890 
12:25	69.4	69.4	69.4	92	67.0	0	2	270	0.00	29.890 
12:30	69.8	69.8	69.8	92	67.4	1	5	270	0.00	29.889 
12:35	69.9	69.9	69.9	92	67.5	1	4	270	0.00	29.889 
12:40	69.9	69.9	69.9	91	67.1	0	2	270	0.00	29.889 
12:45	69.9	69.9	69.9	91	67.1	1	3	270	0.00	29.887 
12:50	69.9	69.9	69.9	90	66.8	2	5	270	0.00	29.887 
12:55	70.3	70.3	70.3	90	67.2	1	3	270	0.00	29.887 
13:00	70.4	70.4	70.4	90	67.3	1	3	270	0.00	29.878 
13:05	70.8	70.8	70.8	89	67.4	1	3	270	0.00	29.878 
13:10	71.3	71.3	71.3	88	67.6	1	4	270	0.00	29.878 
13:15	72.0	72.0	72.0	87	67.9	2	5	270	0.00	29.873 
13:20	72.3	72.3	72.3	85	67.5	1	3	270	0.00	29.873 
13:25	72.8	72.8	72.8	84	67.7	2	4	270	0.00	29.873 
13:30	73.0	73.0	73.0	82	67.2	2	4	270	0.00	29.860 
13:35	73.2	73.2	73.2	82	67.4	2	5	270	0.00	29.860 
13:40	73.9	73.9	73.9	81	67.7	1	5	292	0.00	29.860 
13:45	74.4	74.4	74.4	80	67.8	0	3	292	0.00	29.859 
13:50	74.7	74.7	74.7	79	67.7	0	3	292	0.00	29.859 
13:55	75.3	75.3	76.3	77	67.6	1	4	292	0.00	29.859 
14:00	75.6	75.6	76.8	76	67.5	2	5	292	0.00	29.861 
14:05	75.8	75.8	77.1	75	67.3	1	4	292	0.00	29.861 
14:10	75.8	75.8	77.2	74	66.9	1	3	292	0.00	29.861 
14:15	76.1	76.1	77.5	74	67.2	1	4	292	0.00	29.857 
14:20	76.3	76.3	77.8	73	67.0	1	3	292	0.00	29.857 
14:25	76.3	76.3	77.8	73	67.0	0	2	292	0.00	29.857 
14:30	76.3	76.3	77.8	74	67.4	1	2	292	0.00	29.855 
14:35	76.7	76.7	78.3	74	67.8	1	5	292	0.00	29.855 
14:40	76.8	76.8	78.5	73	67.5	1	3	292	0.00	29.855 
14:45	76.7	76.7	78.4	72	67.0	2	4	292	0.00	29.864 
14:50	76.3	76.3	77.9	72	66.6	2	4	292	0.00	29.864 
14:55	76.1	76.1	77.6	73	66.8	1	3	292	0.00	29.864 
15:00	76.0	76.0	77.5	73	66.7	1	3	292	0.00	29.870 
15:05	76.1	76.1	77.5	74	67.2	1	3	292	0.00	29.870 
15:10	76.5	76.5	78.1	73	67.2	0	4	292	0.00	29.870 
15:15	76.8	76.8	78.5	71	66.7	1	3	292	0.00	29.868 
15:20	77.4	77.4	79.2	69	66.4	1	4	292	0.00	29.868 
15:25	77.7	77.7	79.7	72	67.9	2	5	292	0.00	29.868 
15:30	78.3	78.3	80.4	69	67.3	1	5	292	0.00	29.867 
15:35	78.6	78.6	80.7	68	67.1	0	3	292	0.00	29.867 
15:40	78.5	78.5	80.4	65	65.7	1	4	292	0.00	29.867 
15:45	78.5	78.5	80.4	64	65.3	1	4	292	0.00	29.869 
15:50	78.3	78.3	80.2	65	65.5	1	3	292	0.00	29.869 
15:55	78.1	78.1	80.0	65	65.4	1	4	292	0.00	29.869 
16:00	78.1	78.1	80.0	66	65.8	0	2	292	0.00	29.867 
16:05	77.9	77.9	79.8	66	65.6	1	4	292	0.00	29.867 
16:10	77.7	77.7	79.6	67	65.8	2	5	292	0.00	29.867 
16:15	77.4	77.4	79.2	67	65.6	1	4	270	0.00	29.867 
16:20	77.0	77.0	78.8	69	66.0	1	3	270	0.00	29.867 
16:25	76.8	76.8	78.6	69	65.8	0	1	270	0.00	29.867 
16:30	76.8	76.8	78.6	69	65.8	1	3	270	0.00	29.864 
16:35	76.8	76.8	78.5	71	66.7	0	1	270	0.00	29.864 
16:40	77.0	77.0	78.7	73	67.7	0	1	270	0.00	29.864 
16:45	77.4	77.4	79.3	71	67.2	0	2	270	0.00	29.859 
16:50	77.4	77.4	79.3	70	66.8	1	3	270	0.00	29.859 
16:55	77.2	77.2	79.0	71	67.0	0	3	270	0.00	29.859 
17:00	77.6	77.6	79.5	72	67.8	1	6	270	0.00	29.854 
17:05	78.1	78.1	80.1	68	66.7	2	4	292	0.00	29.854 
17:10	78.1	78.1	80.1	68	66.7	0	2	292	0.00	29.854 
17:15	77.9	77.9	79.9	69	66.9	0	2	292	0.00	29.855 
17:20	77.7	77.7	79.6	69	66.7	0	2	292	0.00	29.855 
17:25	77.6	77.6	79.5	69	66.6	1	3	292	0.00	29.855 
17:30	77.6	77.6	79.5	70	67.0	0	1	292	0.00	29.854 
17:35	77.4	77.4	79.2	69	66.4	0	2	292	0.00	29.854 
17:40	77.2	77.2	79.0	70	66.6	0	1	292	0.00	29.854 
17:45	77.0	77.0	78.8	70	66.4	0	1	292	0.00	29.856 
17:50	76.8	76.8	78.5	71	66.7	0	1	292	0.00	29.856 
17:55	76.8	76.8	78.5	71	66.7	0	2	292	0.00	29.856 
18:00	76.7	76.7	78.4	71	66.6	0	1	292	0.00	29.855 
18:05	76.7	76.7	78.4	71	66.6	0	2	292	0.00	29.855 
18:10	76.8	76.8	78.5	71	66.7	0	1	292	0.00	29.855 
18:15	77.0	77.0	78.8	69	66.0	0	1	292	0.00	29.855 
18:20	77.2	77.2	79.0	70	66.6	0	1	292	0.00	29.855 
18:25	77.6	77.6	79.5	69	66.6	0	2	292	0.00	29.855 
18:30	77.9	77.9	79.9	69	66.9	0	2	292	0.00	29.855 
18:35	78.1	78.1	80.1	69	67.1	0	1	292	0.00	29.855 
18:40	78.1	78.1	80.1	68	66.7	0	2	292	0.00	29.855 
18:45	77.9	77.9	79.9	69	66.9	0	2	292	0.00	29.856 
18:50	77.7	77.7	79.6	66	65.4	0	3	292	0.00	29.856 
18:55	77.6	77.6	79.4	66	65.3	0	3	292	0.00	29.856 
19:00	77.4	77.4	79.2	66	65.1	1	3	292	0.00	29.857 
19:05	77.2	77.2	79.0	66	64.9	0	2	292	0.00	29.857 
19:10	77.2	77.2	79.0	66	64.9	0	1	292	0.00	29.857 
19:15	77.0	77.0	78.8	66	64.8	0	1	292	0.00	29.855 
19:20	77.0	77.0	78.8	66	64.8	0	2	292	0.00	29.855 
19:25	76.8	76.8	78.6	67	65.0	0	0	---	0.00	29.855 
19:30	76.7	76.7	78.5	66	64.5	0	2	292	0.00	29.856 
19:35	76.7	76.7	78.5	65	64.0	1	3	292	0.00	29.856 
19:40	76.7	76.7	78.5	65	64.0	0	1	292	0.00	29.856 
19:45	76.5	76.5	78.3	65	63.8	0	1	292	0.00	29.859 
19:50	76.3	76.3	78.1	66	64.1	0	0	---	0.00	29.859 
19:55	76.1	76.1	77.9	66	63.9	0	1	292	0.00	29.859 
20:00	76.0	76.0	77.8	67	64.2	0	0	---	0.00	29.870 
20:05	75.6	75.6	77.4	67	63.9	0	0	---	0.00	29.870 
20:10	75.3	75.3	77.2	67	63.6	0	0	---	0.00	29.870 
20:15	74.9	74.9	74.9	67	63.2	0	0	---	0.00	29.874 
20:20	74.7	74.7	74.7	67	63.0	0	0	---	0.00	29.874 
20:25	74.6	74.6	74.6	68	63.3	0	0	---	0.00	29.874 
20:30	74.2	74.2	74.2	69	63.4	0	0	---	0.00	29.877 
20:35	73.9	73.9	73.9	69	63.1	0	0	---	0.00	29.877 
20:40	73.5	73.5	73.5	70	63.1	0	0	---	0.00	29.877 
20:45	73.0	73.0	73.0	72	63.4	0	0	---	0.00	29.888 
20:50	72.8	72.8	72.8	73	63.6	0	0	---	0.00	29.888 
20:55	72.5	72.5	72.5	74	63.7	0	0	---	0.00	29.888 
21:00	72.0	72.0	72.0	75	63.6	0	0	---	0.00	29.890 
21:05	71.6	71.6	71.6	76	63.6	0	0	---	0.00	29.890 
21:10	71.1	71.1	71.1	77	63.5	0	0	---	0.00	29.890 
21:15	70.6	70.6	70.6	78	63.4	0	0	---	0.00	29.893 
21:20	70.3	70.3	70.3	79	63.5	0	0	---	0.00	29.893 
21:25	69.8	69.8	69.8	79	63.0	0	0	---	0.00	29.893 
21:30	69.4	69.4	69.4	79	62.6	0	0	---	0.00	29.906 
21:35	69.1	69.1	69.1	81	63.0	0	0	---	0.00	29.906 
21:40	68.9	68.9	68.9	81	62.8	0	0	---	0.00	29.906 
21:45	68.8	68.8	68.8	83	63.4	0	0	---	0.00	29.907 
21:50	68.4	68.4	68.4	84	63.4	0	0	---	0.00	29.907 
21:55	68.1	68.1	68.1	84	63.1	0	0	---	0.00	29.907 
22:00	67.9	67.9	67.9	85	63.2	0	0	---	0.00	29.912 
22:05	67.8	67.8	67.8	86	63.5	0	0	---	0.00	29.912 
22:10	67.8	67.8	67.8	86	63.5	0	0	---	0.00	29.912 
22:15	67.8	67.8	67.8	87	63.8	0	0	---	0.00	29.915 
22:20	67.6	67.6	67.6	87	63.6	0	0	---	0.00	29.915 
22:25	67.4	67.4	67.4	87	63.4	0	0	---	0.00	29.915 
22:30	67.3	67.3	67.3	87	63.3	0	0	---	0.00	29.924 
22:35	67.1	67.1	67.1	87	63.1	0	0	---	0.00	29.924 
22:40	66.9	66.9	66.9	88	63.2	0	0	---	0.00	29.924 
22:45	66.6	66.6	66.6	88	62.9	0	0	---	0.00	29.927 
22:50	66.4	66.4	66.4	88	62.7	0	0	---	0.00	29.927 
22:55	66.3	66.3	66.3	88	62.6	0	0	---	0.00	29.927 
23:00	66.1	66.1	66.1	88	62.4	0	0	---	0.00	29.928 
23:05	65.8	65.8	65.8	89	62.5	0	0	---	0.00	29.928 
23:10	65.6	65.6	65.6	89	62.3	0	0	---	0.00	29.928 
23:15	65.5	65.5	65.5	90	62.5	0	0	---	0.00	29.929 
23:20	65.3	65.3	65.3	90	62.3	0	0	---	0.00	29.929 
23:25	65.2	65.2	65.2	90	62.2	0	0	---	0.00	29.929 
23:30	65.0	65.0	65.0	90	62.0	0	0	---	0.00	29.934 
23:35	64.8	64.8	64.8	91	62.1	0	0	---	0.00	29.934 
23:40	64.7	64.7	64.7	91	62.0	0	0	---	0.00	29.934 
23:45	64.5	64.5	64.5	91	61.8	0	0	---	0.00	29.944 
23:50	64.5	64.5	64.5	91	61.8	0	0	---	0.00	29.944 
23:55	64.5	64.5	64.5	92	62.1	0	0	---	0.00	29.944 

CoCoRaHS
IN-AL-39
A2 Web Hosting
Creative Commons License
GoDaddy
search engine by freefind advanced

loaded 2018-11-17 06:43:05 • last modified 2010-11-18 10:43:29
Privacy PolicyDisclaimer
• wx.awcolley.com is powered by PmWiki v.2002016 •
• all content (unless otherwise noted) © 2018 A W Colley